createdAt,value
2024-02-19T00:00:53.560Z,-2.90
2024-02-19T00:03:20.573Z,-2.86
2024-02-19T00:05:47.308Z,-2.84
2024-02-19T00:08:14.317Z,-2.83
2024-02-19T00:10:41.201Z,-2.83
2024-02-19T00:13:07.989Z,-2.85
2024-02-19T00:15:34.862Z,-2.85
2024-02-19T00:18:02.406Z,-2.86
2024-02-19T00:20:29.316Z,-2.89
2024-02-19T00:22:56.160Z,-2.93
2024-02-19T00:25:22.831Z,-2.98
2024-02-19T00:27:49.832Z,-3.01
2024-02-19T00:30:16.602Z,-3.01
2024-02-19T00:32:43.290Z,-3.03
2024-02-19T00:35:10.100Z,-3.04
2024-02-19T00:37:36.832Z,-3.01
2024-02-19T00:40:04.244Z,-3.04
2024-02-19T00:42:30.934Z,-3.09
2024-02-19T00:44:57.585Z,-3.10
2024-02-19T00:47:24.592Z,-3.11
2024-02-19T00:49:51.322Z,-3.10
2024-02-19T00:52:18.286Z,-3.12
2024-02-19T00:54:45.436Z,-3.21
2024-02-19T00:57:12.535Z,-3.24
2024-02-19T00:59:39.279Z,-3.21
2024-02-19T01:02:06.275Z,-3.25
2024-02-19T01:04:33.336Z,-3.31
2024-02-19T01:07:00.398Z,-3.37
2024-02-19T01:09:27.167Z,-3.35
2024-02-19T01:11:53.914Z,-3.36
2024-02-19T01:14:20.550Z,-3.37
2024-02-19T01:16:47.203Z,-3.37
2024-02-19T01:19:14.221Z,-3.35
2024-02-19T01:21:41.107Z,-3.35
2024-02-19T01:24:07.939Z,-3.33
2024-02-19T01:26:34.695Z,-3.43
2024-02-19T01:29:01.534Z,-3.45
2024-02-19T01:31:28.497Z,-3.45
2024-02-19T01:33:55.578Z,-3.40
2024-02-19T01:36:22.524Z,-3.35
2024-02-19T01:38:49.249Z,-3.31
2024-02-19T01:41:16.505Z,-3.27
2024-02-19T01:43:43.235Z,-3.24
2024-02-19T01:46:10.823Z,-3.26
2024-02-19T01:48:38.200Z,-3.26
2024-02-19T01:51:05.144Z,-3.25
2024-02-19T01:53:31.956Z,-3.22
2024-02-19T01:55:59.737Z,-3.21
2024-02-19T01:58:27.323Z,-3.19
2024-02-19T02:00:55.007Z,-3.16
2024-02-19T02:03:24.109Z,-3.12
2024-02-19T02:05:50.944Z,-3.06
2024-02-19T02:08:18.213Z,-2.99
2024-02-19T02:10:45.010Z,-3.00
2024-02-19T02:13:11.873Z,-2.98
2024-02-19T02:15:38.723Z,-2.94
2024-02-19T02:18:06.063Z,-2.92
2024-02-19T02:20:33.534Z,-2.95
2024-02-19T02:23:00.470Z,-2.96
2024-02-19T02:25:27.251Z,-2.99
2024-02-19T02:27:54.259Z,-3.00
2024-02-19T02:30:21.137Z,-3.05
2024-02-19T02:32:48.358Z,-3.00
2024-02-19T02:35:15.133Z,-2.96
2024-02-19T02:37:41.781Z,-2.95
2024-02-19T02:40:09.176Z,-2.93
2024-02-19T02:42:36.002Z,-3.02
2024-02-19T02:45:02.858Z,-3.12
2024-02-19T02:47:29.566Z,-3.14
2024-02-19T02:49:56.392Z,-3.14
2024-02-19T02:52:23.682Z,-3.16
2024-02-19T02:54:50.497Z,-3.08
2024-02-19T02:57:17.273Z,-3.13
2024-02-19T02:59:44.181Z,-3.14
2024-02-19T03:02:11.489Z,-3.14
2024-02-19T03:04:38.584Z,-3.12
2024-02-19T03:07:05.823Z,-3.10
2024-02-19T03:09:32.846Z,-3.12
2024-02-19T03:11:59.624Z,-3.17
2024-02-19T03:14:26.363Z,-3.30
2024-02-19T03:16:53.177Z,-3.22
2024-02-19T03:19:20.025Z,-3.21
2024-02-19T03:21:46.988Z,-3.27
2024-02-19T03:24:14.257Z,-3.27
2024-02-19T03:26:41.902Z,-3.27
2024-02-19T03:29:14.885Z,-3.32
2024-02-19T03:31:43.435Z,-3.28
2024-02-19T03:34:10.746Z,-3.27
2024-02-19T03:36:38.205Z,-3.39
2024-02-19T03:39:05.880Z,-3.34
2024-02-19T03:41:33.278Z,-3.19
2024-02-19T03:44:00.887Z,-3.13
2024-02-19T03:46:27.743Z,-3.15
2024-02-19T03:48:57.905Z,-3.17
2024-02-19T03:51:24.868Z,-3.20
2024-02-19T03:53:51.875Z,-3.26
2024-02-19T03:56:19.323Z,-3.36
2024-02-19T03:58:46.878Z,-3.35
2024-02-19T04:01:14.812Z,-3.36
2024-02-19T04:03:41.804Z,-3.35
2024-02-19T04:06:09.004Z,-3.30
2024-02-19T04:08:35.808Z,-3.31
2024-02-19T04:11:03.049Z,-3.36
2024-02-19T04:13:29.759Z,-3.40
2024-02-19T04:15:56.748Z,-3.45
2024-02-19T04:18:24.152Z,-3.46
2024-02-19T04:20:51.199Z,-3.47
2024-02-19T04:23:18.018Z,-3.42
2024-02-19T04:25:44.797Z,-3.39
2024-02-19T04:28:11.871Z,-3.36
2024-02-19T04:30:38.935Z,-3.39
2024-02-19T04:33:06.174Z,-3.39
2024-02-19T04:35:33.277Z,-3.43
2024-02-19T04:38:00.141Z,-3.49
2024-02-19T04:40:27.064Z,-3.55
2024-02-19T04:42:53.998Z,-3.60
2024-02-19T04:45:21.299Z,-3.64
2024-02-19T04:47:48.072Z,-3.61
2024-02-19T04:50:15.555Z,-3.60
2024-02-19T04:52:42.360Z,-3.59
2024-02-19T04:55:09.719Z,-3.56
2024-02-19T04:57:36.543Z,-3.54
2024-02-19T05:00:03.496Z,-3.44
2024-02-19T05:02:30.240Z,-3.44
2024-02-19T05:04:57.146Z,-3.40
2024-02-19T05:07:24.010Z,-3.34
2024-02-19T05:09:51.312Z,-3.28
2024-02-19T05:12:18.135Z,-3.32
2024-02-19T05:14:44.897Z,-3.31
2024-02-19T05:17:11.727Z,-3.29
2024-02-19T05:19:38.506Z,-3.24
2024-02-19T05:22:05.316Z,-3.26
2024-02-19T05:24:32.472Z,-3.26
2024-02-19T05:26:59.219Z,-3.23
2024-02-19T05:29:26.076Z,-3.20
2024-02-19T05:31:52.953Z,-3.07
2024-02-19T05:34:19.946Z,-3.01
2024-02-19T05:36:47.165Z,-2.94
2024-02-19T05:39:13.973Z,-2.88
2024-02-19T05:41:41.155Z,-2.83
2024-02-19T05:44:07.884Z,-2.78
2024-02-19T05:46:34.645Z,-2.68
2024-02-19T05:49:02.242Z,-2.62
2024-02-19T05:51:29.238Z,-2.55
2024-02-19T05:53:56.564Z,-2.50
2024-02-19T05:56:23.747Z,-2.49
2024-02-19T05:58:50.497Z,-2.46
2024-02-19T06:01:18.529Z,-2.38
2024-02-19T06:03:45.683Z,-2.26
2024-02-19T06:06:12.875Z,-2.22
2024-02-19T06:08:39.849Z,-2.20
2024-02-19T06:11:06.840Z,-2.15
2024-02-19T06:13:34.026Z,-2.06
2024-02-19T06:16:00.865Z,-1.95
2024-02-19T06:18:27.732Z,-1.92
2024-02-19T06:20:54.576Z,-1.85
2024-02-19T06:23:21.322Z,-1.76
2024-02-19T06:25:48.205Z,-1.66
2024-02-19T06:28:14.943Z,-1.59
2024-02-19T06:30:42.022Z,-1.45
2024-02-19T06:33:09.124Z,-1.29
2024-02-19T06:35:36.184Z,-1.26
2024-02-19T06:38:03.344Z,-1.16
2024-02-19T06:40:30.147Z,-1.07
2024-02-19T06:42:57.136Z,-1.04
2024-02-19T06:45:24.085Z,-0.92
2024-02-19T06:47:51.735Z,-0.83
2024-02-19T06:50:18.624Z,-0.77
2024-02-19T06:52:46.065Z,-0.71
2024-02-19T06:55:17.978Z,-0.57
2024-02-19T06:57:45.515Z,-0.42
2024-02-19T07:00:13.655Z,-0.30
2024-02-19T07:02:41.041Z,-0.36
2024-02-19T07:05:09.296Z,-0.29
2024-02-19T07:07:37.044Z,-0.27
2024-02-19T07:10:04.256Z,-0.16
2024-02-19T07:12:31.600Z,-0.07
2024-02-19T07:14:58.328Z,-0.03
2024-02-19T07:17:25.624Z,0.11
2024-02-19T07:19:52.360Z,0.22
2024-02-19T07:22:19.178Z,0.30
2024-02-19T07:24:46.041Z,0.38
2024-02-19T07:27:12.878Z,0.44
2024-02-19T07:29:39.707Z,0.51
2024-02-19T07:32:06.970Z,0.60
2024-02-19T07:34:33.831Z,0.64
2024-02-19T07:37:00.587Z,0.69
2024-02-19T07:39:27.440Z,0.70
2024-02-19T07:41:54.264Z,0.64
2024-02-19T07:44:21.005Z,0.68
2024-02-19T07:46:48.090Z,0.76
2024-02-19T07:49:15.023Z,0.81
2024-02-19T07:51:42.241Z,0.81
2024-02-19T07:54:09.295Z,0.90
2024-02-19T07:56:36.142Z,0.93
2024-02-19T07:59:02.856Z,0.98
2024-02-19T08:01:29.544Z,0.94
2024-02-19T08:03:56.479Z,0.97
2024-02-19T08:06:23.314Z,1.05
2024-02-19T08:08:50.193Z,1.03
2024-02-19T08:11:16.943Z,1.06
2024-02-19T08:13:43.911Z,1.13
2024-02-19T08:16:11.880Z,1.19
2024-02-19T08:18:38.999Z,1.16
2024-02-19T08:21:06.320Z,1.23
2024-02-19T08:23:33.143Z,1.25
2024-02-19T08:25:59.867Z,1.22
2024-02-19T08:28:26.762Z,1.27
2024-02-19T08:30:53.538Z,1.15
2024-02-19T08:33:20.118Z,1.20
2024-02-19T08:35:46.830Z,1.25
2024-02-19T08:38:13.562Z,1.19
2024-02-19T08:40:40.388Z,1.26
2024-02-19T08:43:07.236Z,1.33
2024-02-19T08:45:37.008Z,1.38
2024-02-19T08:48:05.561Z,1.46
2024-02-19T08:50:32.556Z,1.62
2024-02-19T08:52:59.199Z,1.69
2024-02-19T08:55:26.088Z,1.82
2024-02-19T08:57:52.853Z,1.89
2024-02-19T09:00:19.740Z,1.92
2024-02-19T09:02:46.373Z,1.94
2024-02-19T09:05:13.436Z,1.93
2024-02-19T09:07:40.248Z,2.07
2024-02-19T09:10:08.154Z,2.21
2024-02-19T09:12:35.616Z,2.29
2024-02-19T09:15:02.467Z,2.30
2024-02-19T09:17:29.332Z,2.34
2024-02-19T09:19:56.113Z,2.41
2024-02-19T09:22:23.092Z,2.50
2024-02-19T09:24:50.205Z,2.61
2024-02-19T09:27:17.223Z,2.72
2024-02-19T09:29:43.968Z,2.84
2024-02-19T09:32:10.707Z,2.95
2024-02-19T09:34:37.566Z,2.97
2024-02-19T09:37:04.776Z,3.02
2024-02-19T09:39:31.571Z,3.02
2024-02-19T09:41:58.182Z,3.10
2024-02-19T09:44:25.159Z,3.13
2024-02-19T09:46:57.754Z,3.17
2024-02-19T09:49:26.524Z,3.17
2024-02-19T09:51:58.053Z,3.09
2024-02-19T09:54:24.935Z,3.03
2024-02-19T09:56:52.028Z,3.00
2024-02-19T09:59:18.743Z,2.99
2024-02-19T10:01:45.593Z,3.05
2024-02-19T10:04:13.031Z,3.14
2024-02-19T10:06:43.111Z,3.24
2024-02-19T10:09:11.146Z,3.30
2024-02-19T10:11:38.401Z,3.29
2024-02-19T10:14:05.780Z,3.22
2024-02-19T10:16:32.941Z,3.24
2024-02-19T10:19:06.484Z,3.33
2024-02-19T10:21:34.185Z,3.49
2024-02-19T10:24:01.305Z,3.52
2024-02-19T10:26:28.262Z,3.50
2024-02-19T10:28:56.275Z,3.65
2024-02-19T10:31:23.397Z,3.84
2024-02-19T10:33:50.869Z,3.93
2024-02-19T10:36:19.062Z,4.04
2024-02-19T10:38:45.817Z,4.14
2024-02-19T10:41:13.691Z,4.21
2024-02-19T10:43:40.694Z,4.31
2024-02-19T10:46:07.521Z,4.46
2024-02-19T10:48:34.615Z,4.50
2024-02-19T10:51:05.170Z,4.57
2024-02-19T10:53:32.222Z,4.68
2024-02-19T10:56:36.118Z,4.78
2024-02-19T10:59:03.114Z,4.77
2024-02-19T11:01:46.017Z,4.73
2024-02-19T11:04:16.113Z,4.73
2024-02-19T11:06:54.081Z,4.82
2024-02-19T11:09:29.238Z,4.88
2024-02-19T11:11:59.426Z,5.05
2024-02-19T11:14:35.915Z,5.17
2024-02-19T11:17:04.511Z,5.32
2024-02-19T11:19:38.930Z,5.58
2024-02-19T11:22:11.610Z,6.06
2024-02-19T11:24:40.999Z,6.22
2024-02-19T11:27:08.463Z,6.26
2024-02-19T11:29:43.516Z,6.38
2024-02-19T11:32:15.156Z,6.46
2024-02-19T11:34:41.917Z,6.41
2024-02-19T11:37:11.438Z,6.45
2024-02-19T11:39:38.254Z,6.57
2024-02-19T11:42:05.114Z,6.64
2024-02-19T11:44:33.300Z,6.78
2024-02-19T11:47:00.570Z,6.93
2024-02-19T11:49:27.893Z,6.97
2024-02-19T11:52:04.311Z,7.10
2024-02-19T11:54:35.068Z,7.32
2024-02-19T11:57:02.939Z,7.46
2024-02-19T11:59:31.372Z,7.70
2024-02-19T12:01:58.229Z,7.82
2024-02-19T12:04:27.858Z,8.01
2024-02-19T12:06:55.032Z,8.14
2024-02-19T12:09:22.231Z,8.11
2024-02-19T12:11:48.901Z,8.16
2024-02-19T12:14:15.839Z,8.33
2024-02-19T12:16:42.563Z,8.46
2024-02-19T12:19:09.623Z,8.56
2024-02-19T12:21:36.481Z,8.52
2024-02-19T12:24:03.413Z,8.52
2024-02-19T12:26:31.189Z,8.42
2024-02-19T12:28:59.503Z,8.25
2024-02-19T12:31:26.818Z,8.11
2024-02-19T12:33:55.266Z,8.07
2024-02-19T12:36:22.408Z,8.14
2024-02-19T12:38:49.528Z,8.29
2024-02-19T12:41:17.531Z,8.51
2024-02-19T12:43:45.963Z,8.57
2024-02-19T12:46:14.717Z,8.57
2024-02-19T12:48:42.691Z,8.56
2024-02-19T12:51:10.608Z,8.50
2024-02-19T12:53:37.682Z,8.46
2024-02-19T12:56:05.145Z,8.57
2024-02-19T12:58:32.331Z,8.79
2024-02-19T13:01:00.001Z,9.03
2024-02-19T13:03:28.855Z,9.33
2024-02-19T13:05:55.729Z,9.55
2024-02-19T13:08:22.559Z,9.64
2024-02-19T13:10:49.322Z,9.63
2024-02-19T13:13:16.074Z,9.78
2024-02-19T13:15:45.219Z,9.80
2024-02-19T13:18:12.872Z,9.76
2024-02-19T13:20:41.208Z,9.62
2024-02-19T13:23:08.045Z,9.55
2024-02-19T13:25:34.829Z,9.56
2024-02-19T13:28:02.004Z,9.55
2024-02-19T13:30:28.905Z,9.58
2024-02-19T13:32:55.700Z,9.71
2024-02-19T13:35:22.611Z,9.79
2024-02-19T13:37:49.718Z,9.74
2024-02-19T13:40:16.582Z,9.70
2024-02-19T13:42:43.512Z,9.69
2024-02-19T13:45:10.846Z,9.71
2024-02-19T13:47:41.953Z,9.73
2024-02-19T13:50:09.841Z,9.66
2024-02-19T13:52:36.621Z,9.59
2024-02-19T13:55:03.499Z,9.58
2024-02-19T13:57:30.789Z,9.52
2024-02-19T13:59:57.826Z,9.45
2024-02-19T14:02:24.746Z,9.34
2024-02-19T14:04:51.562Z,9.33
2024-02-19T14:07:18.728Z,9.20
2024-02-19T14:09:45.452Z,9.15
2024-02-19T14:12:12.386Z,9.08
2024-02-19T14:14:39.124Z,9.06
2024-02-19T14:17:06.276Z,9.06
2024-02-19T14:19:36.908Z,9.10
2024-02-19T14:22:03.793Z,9.07
2024-02-19T14:24:30.731Z,9.00
2024-02-19T14:26:57.446Z,8.97
2024-02-19T14:29:24.208Z,8.97
2024-02-19T14:31:50.845Z,8.98
2024-02-19T14:34:17.690Z,8.95
2024-02-19T14:36:44.830Z,8.89
2024-02-19T14:39:11.691Z,8.87
2024-02-19T14:41:38.433Z,8.83
2024-02-19T14:44:05.279Z,8.84
2024-02-19T14:46:32.324Z,8.78
2024-02-19T14:48:59.396Z,8.73
2024-02-19T14:51:26.404Z,8.60
2024-02-19T14:53:53.489Z,8.52
2024-02-19T14:56:20.243Z,8.52
2024-02-19T14:58:47.212Z,8.50
2024-02-19T15:01:14.228Z,8.47
2024-02-19T15:03:41.023Z,8.48
2024-02-19T15:06:08.009Z,8.50
2024-02-19T15:08:34.877Z,8.45
2024-02-19T15:11:01.653Z,8.36
2024-02-19T15:13:28.707Z,8.38
2024-02-19T15:15:55.901Z,8.38
2024-02-19T15:18:23.011Z,8.36
2024-02-19T15:20:49.824Z,8.26
2024-02-19T15:23:16.675Z,8.20
2024-02-19T15:25:43.638Z,8.25
2024-02-19T15:28:10.441Z,8.23
2024-02-19T15:30:37.417Z,8.14
2024-02-19T15:33:04.250Z,8.05
2024-02-19T15:35:31.256Z,8.08
2024-02-19T15:37:58.081Z,8.02
2024-02-19T15:40:24.902Z,7.92
2024-02-19T15:42:51.846Z,7.87
2024-02-19T15:45:18.734Z,7.86
2024-02-19T15:47:45.513Z,7.81
2024-02-19T15:50:12.466Z,7.79
2024-02-19T15:52:39.507Z,7.73
2024-02-19T15:55:07.049Z,7.71
2024-02-19T15:57:34.193Z,7.69
2024-02-19T16:00:01.235Z,7.68
2024-02-19T16:02:28.192Z,7.72
2024-02-19T16:04:55.349Z,7.76
2024-02-19T16:07:25.139Z,7.77
2024-02-19T16:09:53.870Z,7.67
2024-02-19T16:12:20.468Z,7.72
2024-02-19T16:14:47.218Z,7.60
2024-02-19T16:17:13.893Z,7.44
2024-02-19T16:19:41.084Z,7.37
2024-02-19T16:22:08.366Z,7.30
2024-02-19T16:24:35.854Z,7.24
2024-02-19T16:27:03.449Z,7.21
2024-02-19T16:29:30.557Z,7.20
2024-02-19T16:31:57.673Z,7.22
2024-02-19T16:34:24.816Z,7.18
2024-02-19T16:36:51.726Z,7.17
2024-02-19T16:39:18.499Z,7.16
2024-02-19T16:41:45.077Z,7.18
2024-02-19T16:44:11.729Z,7.15
2024-02-19T16:46:38.654Z,7.16
2024-02-19T16:49:05.586Z,7.13
2024-02-19T16:51:32.381Z,7.09
2024-02-19T16:53:59.131Z,7.05
2024-02-19T16:56:25.880Z,7.01
2024-02-19T16:58:52.730Z,7.02
2024-02-19T17:01:19.614Z,6.97
2024-02-19T17:03:46.637Z,6.94
2024-02-19T17:06:13.542Z,7.06
2024-02-19T17:08:40.443Z,7.01
2024-02-19T17:11:07.220Z,6.96
2024-02-19T17:13:34.231Z,6.93
2024-02-19T17:16:01.030Z,6.92
2024-02-19T17:18:27.823Z,6.91
2024-02-19T17:20:54.899Z,6.91
2024-02-19T17:23:21.792Z,6.89
2024-02-19T17:25:48.944Z,6.92
2024-02-19T17:28:15.734Z,6.90
2024-02-19T17:30:42.798Z,6.87
2024-02-19T17:33:15.683Z,6.92
2024-02-19T17:35:45.568Z,6.95
2024-02-19T17:38:12.792Z,6.93
2024-02-19T17:40:39.749Z,6.89
2024-02-19T17:43:06.588Z,6.79
2024-02-19T17:45:33.574Z,6.72
2024-02-19T17:48:00.609Z,6.69
2024-02-19T17:50:27.666Z,6.71
2024-02-19T17:52:54.413Z,6.63
2024-02-19T17:55:21.378Z,6.62
2024-02-19T17:57:48.371Z,6.58
2024-02-19T18:00:15.605Z,6.59
2024-02-19T18:02:42.540Z,6.65
2024-02-19T18:05:09.393Z,6.67
2024-02-19T18:07:36.310Z,6.70
2024-02-19T18:10:04.273Z,6.69
2024-02-19T18:12:30.912Z,6.75
2024-02-19T18:14:57.616Z,6.77
2024-02-19T18:17:24.326Z,6.74
2024-02-19T18:19:51.247Z,6.76
2024-02-19T18:22:18.352Z,6.75
2024-02-19T18:24:45.180Z,6.67
2024-02-19T18:27:11.858Z,6.64
2024-02-19T18:29:38.602Z,6.63
2024-02-19T18:32:05.887Z,6.60
2024-02-19T18:34:32.923Z,6.57
2024-02-19T18:36:59.709Z,6.49
2024-02-19T18:39:27.593Z,6.38
2024-02-19T18:41:54.441Z,6.30
2024-02-19T18:44:21.674Z,6.26
2024-02-19T18:46:48.533Z,6.20
2024-02-19T18:49:15.748Z,6.19
2024-02-19T18:51:42.864Z,6.20
2024-02-19T18:54:09.599Z,6.23
2024-02-19T18:56:36.342Z,6.21
2024-02-19T18:59:03.087Z,6.22
2024-02-19T19:01:29.940Z,6.18
2024-02-19T19:03:56.957Z,6.19
2024-02-19T19:06:23.784Z,6.17
2024-02-19T19:08:50.695Z,6.14
2024-02-19T19:11:17.476Z,6.12
2024-02-19T19:13:44.198Z,6.13
2024-02-19T19:16:11.021Z,6.19
2024-02-19T19:18:37.848Z,6.23
2024-02-19T19:21:04.936Z,6.24
2024-02-19T19:23:31.687Z,6.25
2024-02-19T19:25:58.410Z,6.20
2024-02-19T19:28:25.111Z,6.21
2024-02-19T19:30:51.955Z,6.29
2024-02-19T19:33:19.355Z,6.32
2024-02-19T19:35:46.362Z,6.37
2024-02-19T19:38:13.206Z,6.46
2024-02-19T19:40:39.922Z,6.53
2024-02-19T19:43:07.034Z,6.59
2024-02-19T19:45:33.945Z,6.61
2024-02-19T19:48:00.709Z,6.60
2024-02-19T19:50:27.881Z,6.63
2024-02-19T19:52:54.520Z,6.65
2024-02-19T19:55:21.647Z,6.65
2024-02-19T19:57:48.706Z,6.64
2024-02-19T20:00:16.392Z,6.69
2024-02-19T20:02:44.796Z,6.66
2024-02-19T20:05:12.822Z,6.68
2024-02-19T20:07:39.985Z,6.67
2024-02-19T20:10:07.415Z,6.69
2024-02-19T20:12:34.938Z,6.77
2024-02-19T20:15:02.024Z,6.80
2024-02-19T20:17:28.883Z,6.84
2024-02-19T20:19:55.809Z,6.80
2024-02-19T20:22:22.586Z,6.74
2024-02-19T20:24:49.460Z,6.73
2024-02-19T20:27:16.278Z,6.80
2024-02-19T20:29:42.913Z,6.75
2024-02-19T20:32:09.858Z,6.70
2024-02-19T20:34:37.042Z,6.78
2024-02-19T20:37:04.096Z,6.78
2024-02-19T20:39:31.149Z,6.75
2024-02-19T20:41:57.855Z,6.75
2024-02-19T20:44:24.559Z,6.75
2024-02-19T20:46:51.409Z,6.75
2024-02-19T20:49:18.747Z,6.79
2024-02-19T20:51:45.634Z,6.80
2024-02-19T20:54:12.588Z,6.89
2024-02-19T20:56:39.851Z,6.87
2024-02-19T20:59:06.493Z,6.93
2024-02-19T21:01:33.399Z,6.98
2024-02-19T21:04:00.972Z,6.96
2024-02-19T21:06:28.044Z,6.90
2024-02-19T21:08:54.914Z,6.95
2024-02-19T21:11:22.651Z,6.96
2024-02-19T21:13:49.534Z,6.92
2024-02-19T21:16:16.211Z,6.96
2024-02-19T21:18:47.564Z,6.93
2024-02-19T21:21:22.250Z,6.98
2024-02-19T21:23:56.851Z,7.00
2024-02-19T21:26:23.637Z,7.00
2024-02-19T21:28:50.555Z,7.02
2024-02-19T21:31:17.542Z,7.00
2024-02-19T21:33:44.721Z,6.95
2024-02-19T21:36:11.677Z,6.97
2024-02-19T21:38:38.577Z,6.91
2024-02-19T21:41:05.533Z,6.85
2024-02-19T21:43:32.257Z,6.89
2024-02-19T21:45:59.106Z,6.91
2024-02-19T21:48:26.999Z,6.88
2024-02-19T21:50:54.015Z,6.87
2024-02-19T21:53:20.857Z,6.84
2024-02-19T21:55:47.504Z,6.83
2024-02-19T21:58:14.224Z,6.80
2024-02-19T22:00:41.053Z,6.78
2024-02-19T22:03:07.957Z,6.76
2024-02-19T22:05:35.077Z,6.71
2024-02-19T22:08:01.867Z,6.75
2024-02-19T22:10:28.654Z,6.76
2024-02-19T22:12:55.475Z,6.76
2024-02-19T22:15:22.518Z,6.66
2024-02-19T22:17:49.166Z,6.66
2024-02-19T22:20:16.119Z,6.61
2024-02-19T22:22:42.826Z,6.57
2024-02-19T22:25:09.963Z,6.55
2024-02-19T22:27:36.788Z,6.53
2024-02-19T22:30:03.617Z,6.52
2024-02-19T22:32:30.178Z,6.49
2024-02-19T22:34:57.180Z,6.48
2024-02-19T22:37:24.101Z,6.44
2024-02-19T22:39:50.989Z,6.45
2024-02-19T22:42:17.689Z,6.49
2024-02-19T22:44:44.331Z,6.52
2024-02-19T22:47:11.183Z,6.52
2024-02-19T22:49:38.247Z,6.47
2024-02-19T22:52:06.420Z,6.50
2024-02-19T22:54:33.173Z,6.44
2024-02-19T22:57:00.740Z,6.44
2024-02-19T22:59:27.401Z,6.37
2024-02-19T23:01:55.155Z,6.28
2024-02-19T23:04:22.077Z,6.33
2024-02-19T23:06:49.102Z,6.33
2024-02-19T23:09:15.926Z,6.34
2024-02-19T23:11:42.722Z,6.33
2024-02-19T23:14:09.399Z,6.30
2024-02-19T23:16:36.270Z,6.28
2024-02-19T23:19:03.016Z,6.28
2024-02-19T23:21:29.748Z,6.27
2024-02-19T23:23:56.356Z,6.26
2024-02-19T23:26:23.047Z,6.26
2024-02-19T23:28:49.903Z,6.27
2024-02-19T23:31:16.730Z,6.28
2024-02-19T23:33:43.825Z,6.28
2024-02-19T23:36:10.880Z,6.29
2024-02-19T23:38:37.747Z,6.28
2024-02-19T23:41:04.600Z,6.26
2024-02-19T23:43:31.562Z,6.28
2024-02-19T23:45:59.096Z,6.30
2024-02-19T23:48:26.478Z,6.26
2024-02-19T23:50:53.304Z,6.22
2024-02-19T23:53:21.088Z,6.19
2024-02-19T23:55:47.965Z,6.10
2024-02-19T23:58:14.795Z,6.06
